Weather at Caye Caulker Airport

Public forecast

Using degrees Celsius for public forecast. Weather courtesy of forecast.io.

Closest aviation weather report (METAR) to Caye Caulker Airport

Report is more than 6 hours old.

Closest report is Philip S. W. Goldson International Airport, 19.4 nm (36.0 km) SW.

2022/11/14 15:00 (retrieved 2 years ago)

MZBZ 141500Z 29004KT 9999 FEW005 SCT022 25/25 A3001 Q1016 NOSIG

Closest aviation forecast (TAF) to Caye Caulker Airport

Forecast is more than 12 hours old.

Closest forecast is Philip S. W. Goldson International Airport, 19.4 nm (36.0 km) SW.

2023/02/22 12:03 (retrieved 1 year ago)

TAF MZBZ 221100Z 2212/2312 12012G22KT 9999 SCT024